Terminal Aerodrome Forecast
Issued by NWS Lake Charles, LA

Current Version | Previous Version | Text Only | Print | Product List | Glossary On
Versions: 1 2 3 4 5 6 7 8 9 10 11 12 13 14 15 16 17
000
FTUS44 KLCH 261100
TAFARA
TAF
KARA 261120Z 2612/2712 VRB03KT P6SM SKC
      TEMPO 2612/2613 4SM BR
     FM261600 20010KT P6SM VCTS SCT035CB
     FM270100 VRB03KT P6SM SKC=

USA.gov is the U.S. government's official web portal to all federal, state and local government web resources and services.